Time;durP1;ratioP1;P1;durP2;ratioP2;P2;SDS_P1;SDS_P2;PMS_P1;PMS_P2;Temp;Humidity;BMP_temperature;BMP_pressure;BME280_temperature;BME280_humidity;BME280_pressure;Samples;Min_cycle;Max_cycle;Signal;HPM_P1;HPM_P2
2022/11/26 00:00:31;;;;;;;9.65;4.97;;;;;;;8.20;85.87;101089.19;10473076;28;20044;-60
2022/11/26 00:05:33;;;;;;;15.07;7.78;;;;;;;8.23;85.13;101107.56;10475513;28;20040;-60
2022/11/26 00:10:35;;;;;;;9.35;4.68;;;;;;;8.26;85.33;101115.34;10478535;28;20297;-60
2022/11/26 00:15:36;;;;;;;17.55;6.38;;;;;;;8.21;84.99;101116.53;10475594;28;20447;-60
2022/11/26 00:20:38;;;;;;;12.77;6.00;;;;;;;8.06;85.42;101111.19;10473142;28;20048;-60
2022/11/26 00:25:47;;;;;;;12.20;5.18;;;;;;;8.04;85.79;101112.19;10474062;28;20052;-61
2022/11/26 00:30:48;;;;;;;14.15;5.93;;;;;;;8.04;85.25;101115.69;10472846;28;20086;-61
2022/11/26 00:35:54;;;;;;;15.45;6.15;;;;;;;7.93;85.69;101126.91;10480822;28;20445;-61
2022/11/26 00:40:56;;;;;;;12.35;5.32;;;;;;;7.83;85.85;101122.22;10472650;28;20525;-60
2022/11/26 00:45:57;;;;;;;12.48;6.20;;;;;;;7.96;86.09;101129.38;10468763;28;20055;-60
2022/11/26 00:50:59;;;;;;;13.10;4.90;;;;;;;8.02;85.41;101138.81;10476831;28;20044;-61
2022/11/26 00:56:00;;;;;;;9.45;4.97;;;;;;;8.00;85.14;101161.03;10468840;28;20048;-61
2022/11/26 01:01:01;;;;;;;10.38;4.53;;;;;;;7.75;86.09;101152.63;10471487;28;20564;-61
2022/11/26 01:06:03;;;;;;;9.77;4.43;;;;;;;7.77;85.89;101169.28;10475988;28;20097;-60
2022/11/26 01:11:04;;;;;;;10.98;4.75;;;;;;;7.65;86.36;101162.00;10470658;28;20284;-61
2022/11/26 01:16:17;;;;;;;9.68;4.57;;;;;;;7.63;86.60;101174.50;10465523;28;20102;-60
2022/11/26 01:21:19;;;;;;;9.88;4.43;;;;;;;7.52;86.82;101174.19;10471945;28;20407;-60
2022/11/26 01:26:26;;;;;;;7.68;3.83;;;;;;;7.48;87.08;101183.28;10473497;28;20045;-60
2022/11/26 01:31:29;;;;;;;9.63;3.80;;;;;;;7.47;87.67;101189.50;10471759;28;20044;-61
2022/11/26 01:36:33;;;;;;;7.07;3.63;;;;;;;7.42;87.53;101198.53;10469496;28;20080;-63
2022/11/26 01:42:13;;;;;;;7.18;3.50;;;;;;;7.39;88.10;101209.28;10470132;28;20049;-62
2022/11/26 01:47:22;;;;;;;10.80;4.05;;;;;;;7.34;88.11;101211.34;10474893;28;20055;-61
2022/11/26 01:52:25;;;;;;;10.48;5.00;;;;;;;7.22;88.26;101223.41;10469976;28;20448;-60
2022/11/26 01:57:29;;;;;;;10.25;3.90;;;;;;;7.20;88.79;101227.06;10470273;28;20062;-60
2022/11/26 02:02:30;;;;;;;8.87;4.70;;;;;;;7.15;88.68;101232.59;10473028;28;20253;-61
2022/11/26 02:07:33;;;;;;;9.43;4.35;;;;;;;7.08;89.01;101221.44;10465094;28;20051;-60
2022/11/26 02:12:36;;;;;;;9.35;4.28;;;;;;;7.20;88.51;101241.16;10469038;28;20127;-61
2022/11/26 02:17:56;;;;;;;11.57;3.97;;;;;;;7.14;88.54;101235.31;10466172;28;20048;-61
2022/11/26 02:23:26;;;;;;;11.50;3.70;;;;;;;7.26;88.37;101262.03;10466668;28;20216;-61
2022/11/26 02:28:50;;;;;;;10.35;4.85;;;;;;;7.31;87.87;101267.13;10466308;28;20191;-60
2022/11/26 02:33:55;;;;;;;12.98;4.93;;;;;;;7.26;87.62;101277.06;10472489;28;20036;-61
2022/11/26 02:38:56;;;;;;;11.52;4.70;;;;;;;7.26;88.06;101285.84;10466526;28;20548;-61
2022/11/26 02:43:58;;;;;;;10.77;4.63;;;;;;;7.23;87.93;101283.38;10466170;28;20044;-60
2022/11/26 02:49:00;;;;;;;9.32;4.32;;;;;;;7.37;88.15;101277.41;10470774;28;20139;-60
2022/11/26 02:54:05;;;;;;;9.85;4.43;;;;;;;7.34;87.23;101290.81;10464888;28;20049;-60
2022/11/26 02:59:06;;;;;;;11.27;4.73;;;;;;;7.44;87.15;101293.81;10467803;28;20056;-60
2022/11/26 03:04:14;;;;;;;8.65;5.05;;;;;;;7.30;86.74;101281.28;10471188;28;20320;-60
2022/11/26 03:09:17;;;;;;;10.55;4.53;;;;;;;7.36;87.19;101301.31;10472798;28;20168;-60
2022/11/26 03:14:18;;;;;;;11.43;4.57;;;;;;;7.34;86.91;101301.41;10481808;28;20041;-60
2022/11/26 03:19:19;;;;;;;7.97;4.15;;;;;;;7.27;87.24;101305.28;10481451;28;20262;-60
2022/11/26 03:24:21;;;;;;;7.13;3.88;;;;;;;7.26;87.19;101298.25;10481841;28;20462;-60
2022/11/26 03:29:22;;;;;;;11.07;5.50;;;;;;;7.23;86.93;101295.75;10485555;28;20056;-60
2022/11/26 03:34:24;;;;;;;9.55;4.20;;;;;;;7.34;86.66;101317.28;10483433;28;20097;-60
2022/11/26 03:39:25;;;;;;;9.93;4.57;;;;;;;7.25;86.15;101307.13;10479561;28;20071;-60
2022/11/26 03:44:27;;;;;;;9.15;4.53;;;;;;;7.08;86.11;101284.97;10481278;28;20447;-60
2022/11/26 03:49:28;;;;;;;10.23;5.35;;;;;;;7.19;86.31;101321.56;10481871;28;20062;-61
2022/11/26 03:54:29;;;;;;;10.35;4.72;;;;;;;7.12;86.60;101319.28;10482331;28;20060;-60
2022/11/26 03:59:31;;;;;;;9.60;4.85;;;;;;;7.06;86.76;101318.63;10479282;28;20052;-59
2022/11/26 04:04:32;;;;;;;11.05;4.63;;;;;;;6.85;87.01;101299.34;10487760;28;20530;-60
2022/11/26 04:09:34;;;;;;;12.98;5.43;;;;;;;6.81;88.01;101304.88;10480982;28;20045;-59
2022/11/26 04:14:35;;;;;;;10.82;4.20;;;;;;;6.93;88.20;101317.50;10483452;28;20426;-60
2022/11/26 04:19:37;;;;;;;8.57;4.22;;;;;;;6.84;88.34;101305.56;10482217;28;20052;-60
2022/11/26 04:24:38;;;;;;;9.15;4.28;;;;;;;6.90;87.83;101334.44;10471943;28;20523;-60
2022/11/26 04:29:40;;;;;;;9.45;4.22;;;;;;;6.86;88.85;101326.66;10474825;28;20189;-60
2022/11/26 04:34:41;;;;;;;15.07;4.70;;;;;;;6.89;88.38;101331.81;10484260;28;20051;-60
2022/11/26 04:39:43;;;;;;;10.30;5.03;;;;;;;6.82;88.71;101330.41;10470747;28;20052;-60
2022/11/26 04:44:44;;;;;;;9.27;5.18;;;;;;;6.81;88.67;101328.69;10475661;28;20623;-60
2022/11/26 04:49:45;;;;;;;8.60;4.38;;;;;;;6.82;88.28;101349.78;10474408;28;20063;-60
2022/11/26 04:54:46;;;;;;;13.57;4.60;;;;;;;6.75;88.71;101355.44;10474465;28;20048;-61
2022/11/26 04:59:47;;;;;;;9.43;4.15;;;;;;;6.72;88.71;101359.97;10476587;28;20549;-61
2022/11/26 05:04:49;;;;;;;12.02;4.90;;;;;;;6.78;88.97;101387.91;10475453;28;20044;-61
2022/11/26 05:09:50;;;;;;;9.98;4.80;;;;;;;6.75;88.79;101390.69;10473103;28;20589;-61
2022/11/26 05:14:52;;;;;;;9.18;4.93;;;;;;;6.68;89.47;101391.91;10488494;28;20712;-61
2022/11/26 05:19:53;;;;;;;12.50;5.20;;;;;;;6.65;89.90;101387.63;10472626;28;20051;-61
2022/11/26 05:24:54;;;;;;;12.95;5.43;;;;;;;6.68;89.29;101392.78;10474196;28;20052;-61
2022/11/26 05:29:56;;;;;;;11.90;4.88;;;;;;;6.67;89.63;101401.66;10476827;28;20051;-60
2022/11/26 05:34:57;;;;;;;11.45;5.43;;;;;;;6.66;89.19;101401.72;10464581;28;20150;-61
2022/11/26 05:40:01;;;;;;;9.48;4.57;;;;;;;6.59;89.16;101403.78;10471034;28;20118;-60
2022/11/26 05:45:03;;;;;;;13.93;5.95;;;;;;;6.74;88.90;101415.47;10469538;28;20873;-61
2022/11/26 05:50:05;;;;;;;9.10;4.07;;;;;;;6.71;88.51;101424.41;10472565;28;20052;-60
2022/11/26 05:55:07;;;;;;;7.75;4.93;;;;;;;6.69;88.88;101425.38;10470036;28;20577;-67
2022/11/26 06:00:09;;;;;;;12.18;4.47;;;;;;;6.66;88.41;101422.88;10472594;28;20113;-61
2022/11/26 06:05:11;;;;;;;9.07;4.70;;;;;;;6.70;87.97;101440.34;10482660;28;20070;-61
2022/11/26 06:10:12;;;;;;;12.93;4.80;;;;;;;6.65;87.77;101443.19;10483256;28;20160;-61
2022/11/26 06:15:14;;;;;;;10.38;5.43;;;;;;;6.68;87.49;101453.66;10472188;28;20056;-61
2022/11/26 06:20:15;;;;;;;10.38;4.70;;;;;;;6.47;87.89;101431.66;10462441;28;20737;-61
2022/11/26 06:25:17;;;;;;;8.65;4.88;;;;;;;6.40;88.62;101450.50;10466437;28;20060;-61
2022/11/26 06:30:18;;;;;;;7.13;5.53;;;;;;;6.49;89.04;101452.75;10464109;28;20060;-62
2022/11/26 06:35:19;;;;;;;7.78;5.03;;;;;;;6.36;88.19;101440.06;10462066;28;20059;-62
2022/11/26 06:40:21;;;;;;;9.25;5.63;;;;;;;6.32;88.70;101475.50;10465958;28;20051;-62
2022/11/26 06:45:23;;;;;;;7.35;5.10;;;;;;;6.37;88.22;101486.72;10464219;28;20048;-65
2022/11/26 06:50:24;;;;;;;7.80;5.22;;;;;;;6.33;89.01;101498.34;10464620;28;20044;-62
2022/11/26 06:55:26;;;;;;;9.75;4.88;;;;;;;6.41;88.36;101506.00;10465122;28;20063;-61
2022/11/26 07:00:27;;;;;;;11.20;5.30;;;;;;;6.32;87.88;101517.81;10469918;28;20044;-62
2022/11/26 07:05:28;;;;;;;14.38;5.95;;;;;;;6.25;88.10;101516.34;10466597;28;20052;-64
2022/11/26 07:10:29;;;;;;;13.70;5.85;;;;;;;6.28;88.44;101531.25;10463278;28;20058;-62
2022/11/26 07:15:31;;;;;;;12.55;7.07;;;;;;;6.24;88.55;101525.19;10464911;28;20052;-63
2022/11/26 07:20:34;;;;;;;11.02;5.75;;;;;;;6.25;88.68;101542.78;10451854;28;20044;-62
2022/11/26 07:25:35;;;;;;;15.50;7.15;;;;;;;6.12;88.93;101533.66;10462699;28;20985;-63
2022/11/26 07:30:37;;;;;;;8.85;5.65;;;;;;;6.28;88.39;101552.41;10446946;28;20064;-63
2022/11/26 07:35:38;;;;;;;10.27;5.22;;;;;;;6.18;89.14;101543.97;10449563;28;20642;-66
2022/11/26 07:40:40;;;;;;;13.50;5.85;;;;;;;6.25;88.96;101568.38;10452490;28;20047;-63
2022/11/26 07:45:41;;;;;;;15.40;7.28;;;;;;;6.38;88.34;101569.59;10448970;28;20139;-63
2022/11/26 07:50:43;;;;;;;8.45;5.70;;;;;;;6.50;87.65;101571.72;10452590;28;20053;-63
2022/11/26 07:55:45;;;;;;;10.98;5.95;;;;;;;6.58;87.30;101566.09;10454363;28;20052;-61
2022/11/26 08:00:47;;;;;;;9.90;5.15;;;;;;;6.51;87.07;101575.22;10457657;28;20051;-63
2022/11/26 08:05:54;;;;;;;10.95;6.30;;;;;;;6.58;87.73;101575.84;10456072;28;20052;-63
2022/11/26 08:10:56;;;;;;;12.65;6.95;;;;;;;6.65;87.58;101567.56;10462752;28;20130;-60
2022/11/26 08:15:57;;;;;;;10.95;5.82;;;;;;;6.59;87.29;101559.91;10458753;28;20043;-59
2022/11/26 08:20:59;;;;;;;11.57;6.85;;;;;;;6.66;87.25;101574.56;10461349;28;20044;-60
2022/11/26 08:26:09;;;;;;;13.32;6.18;;;;;;;6.56;87.37;101565.31;10457366;28;20517;-60
2022/11/26 08:31:31;;;;;;;8.95;6.38;;;;;;;6.76;87.26;101585.63;10449874;28;20071;-61
2022/11/26 08:36:33;;;;;;;12.55;6.57;;;;;;;6.72;86.70;101584.03;10447999;28;20050;-62
2022/11/26 08:41:34;;;;;;;11.88;7.03;;;;;;;6.95;86.30;101592.75;10450533;28;20071;-62
2022/11/26 08:46:38;;;;;;;11.95;7.32;;;;;;;7.02;86.23;101595.06;10456082;28;20052;-61
2022/11/26 08:51:40;;;;;;;11.27;6.50;;;;;;;7.13;85.84;101588.44;10455934;28;20060;-61
2022/11/26 08:56:41;;;;;;;11.63;6.03;;;;;;;7.25;85.49;101590.50;10452938;28;20044;-61
2022/11/26 09:01:43;;;;;;;10.20;6.38;;;;;;;7.32;85.32;101591.97;10447314;28;20052;-60
2022/11/26 09:06:44;;;;;;;13.63;6.72;;;;;;;7.26;84.61;101584.28;10452907;28;20520;-62
2022/11/26 09:11:52;;;;;;;9.77;5.95;;;;;;;7.26;84.71;101585.16;10444242;28;20104;-62
2022/11/26 09:16:55;;;;;;;6.93;5.05;;;;;;;7.52;84.79;101616.69;10449598;28;20036;-61
2022/11/26 09:21:57;;;;;;;9.32;5.50;;;;;;;7.60;83.74;101619.84;10453336;28;20059;-61
2022/11/26 09:26:59;;;;;;;9.45;5.22;;;;;;;7.78;82.76;101637.53;10447767;28;20592;-60
2022/11/26 09:32:08;;;;;;;15.93;6.38;;;;;;;8.15;81.64;101634.94;10455391;28;20508;-60
2022/11/26 09:37:27;;;;;;;11.82;5.00;;;;;;;8.52;80.27;101630.50;10452438;28;20071;-60
2022/11/26 09:42:41;;;;;;;11.18;5.85;;;;;;;8.90;78.50;101651.59;10449685;28;20092;-59
2022/11/26 09:47:46;;;;;;;11.13;6.67;;;;;;;9.06;77.30;101641.03;10460678;28;20114;-60
2022/11/26 09:53:01;;;;;;;12.80;6.40;;;;;;;9.35;76.68;101643.97;10462633;28;20060;-61
2022/11/26 09:58:14;;;;;;;10.68;6.05;;;;;;;9.54;74.80;101625.25;10464670;28;20044;-62
2022/11/26 10:03:19;;;;;;;10.07;6.05;;;;;;;9.79;73.38;101623.88;10463919;28;20048;-62
2022/11/26 10:08:31;;;;;;;11.48;6.53;;;;;;;9.88;72.44;101618.91;10467587;28;20417;-62
2022/11/26 10:13:36;;;;;;;14.80;6.38;;;;;;;10.11;72.53;101619.44;10464327;28;20055;-62
2022/11/26 10:18:48;;;;;;;10.18;5.20;;;;;;;9.92;72.31;101616.94;10467185;28;20090;-62
2022/11/26 10:24:12;;;;;;;9.88;5.38;;;;;;;12.50;63.07;101627.94;10465383;28;20055;-62
2022/11/26 10:29:32;;;;;;;7.10;4.95;;;;;;;15.42;51.71;101631.81;10467857;28;20044;-63
2022/11/26 10:34:45;;;;;;;8.27;5.60;;;;;;;17.85;45.28;101617.75;10470235;28;20067;-60
2022/11/26 10:39:47;;;;;;;9.63;5.00;;;;;;;19.35;43.02;101620.97;10463004;28;20051;-60
2022/11/26 10:44:50;;;;;;;8.48;5.55;;;;;;;20.05;39.40;101615.06;10461656;28;20067;-66
2022/11/26 10:49:53;;;;;;;;;;;;;;;19.59;41.27;101620.44;10463088;28;20127;-61
2022/11/26 10:55:16;;;;;;;7.90;5.45;;;;;;;19.64;40.81;101614.59;10465217;28;19924;-61
2022/11/26 11:00:39;;;;;;;9.02;5.40;;;;;;;17.64;43.94;101602.50;10471404;28;20049;-63
2022/11/26 11:05:44;;;;;;;9.37;5.53;;;;;;;18.26;45.04;101618.53;10462258;28;20051;-61
2022/11/26 11:10:53;;;;;;;9.63;5.90;;;;;;;20.17;40.99;101620.28;10460416;28;20051;-61
2022/11/26 11:16:00;;;;;;;7.72;5.38;;;;;;;20.65;38.68;101609.06;10469421;28;20788;-62
2022/11/26 11:21:03;;;;;;;11.57;5.80;;;;;;;23.19;34.42;101604.56;10466022;28;20043;-60
2022/11/26 11:26:11;;;;;;;9.85;5.47;;;;;;;23.22;34.29;101596.06;10467243;28;20054;-61
2022/11/26 11:31:16;;;;;;;11.88;5.50;;;;;;;22.59;34.88;101598.53;10471246;28;20294;-61
2022/11/26 11:36:27;;;;;;;9.18;5.30;;;;;;;19.08;40.65;101595.63;10474562;28;20720;-62
2022/11/26 11:41:42;;;;;;;7.95;5.38;;;;;;;18.47;42.66;101596.84;10471772;28;20040;-61
2022/11/26 11:46:55;;;;;;;10.30;5.07;;;;;;;20.94;37.69;101590.84;10474611;28;20174;-61
2022/11/26 11:52:05;;;;;;;7.75;5.03;;;;;;;20.94;37.00;101585.44;10473862;28;20704;-61
2022/11/26 11:57:34;;;;;;;10.75;5.57;;;;;;;23.91;32.97;101576.41;10477828;28;20067;-62
2022/11/26 12:02:48;;;;;;;9.13;5.50;;;;;;;25.06;30.22;101580.91;10473939;28;20055;-61
2022/11/26 12:08:00;;;;;;;7.10;4.50;;;;;;;22.51;33.96;101578.69;10475229;28;20694;-60
2022/11/26 12:13:05;;;;;;;9.33;5.53;;;;;;;21.89;34.76;101566.41;10471507;28;20067;-61
2022/11/26 12:18:22;;;;;;;7.53;4.57;;;;;;;21.69;34.88;101579.38;10474121;28;20087;-61
2022/11/26 12:23:45;;;;;;;8.15;4.55;;;;;;;17.98;41.72;101582.47;10474729;28;20572;-63
2022/11/26 12:28:54;;;;;;;9.27;5.57;;;;;;;17.30;44.21;101578.56;10473359;28;20054;-61
2022/11/26 12:34:05;;;;;;;10.25;6.10;;;;;;;16.08;46.17;101518.22;10469196;28;20052;-60
2022/11/26 12:39:17;;;;;;;10.10;5.85;;;;;;;16.49;46.58;101577.50;10469002;28;20048;-62
2022/11/26 12:44:36;;;;;;;10.63;6.70;;;;;;;16.14;46.67;101584.00;10468582;28;20052;-61
2022/11/26 12:50:09;;;;;;;10.85;6.53;;;;;;;15.62;48.15;101589.09;10475488;28;20559;-61
2022/11/26 12:55:33;;;;;;;8.90;5.75;;;;;;;14.22;51.67;101585.53;10468555;28;20056;-61
2022/11/26 13:00:35;;;;;;;8.13;5.18;;;;;;;12.97;55.67;101594.47;10467282;28;20046;-61
2022/11/26 13:05:41;;;;;;;7.20;5.50;;;;;;;12.17;59.03;101613.19;10473113;28;20080;-61
2022/11/26 13:10:58;;;;;;;7.32;4.60;;;;;;;11.74;61.28;101599.94;10469645;28;20047;-61
2022/11/26 13:16:19;;;;;;;10.45;5.30;;;;;;;11.30;63.04;101593.78;10474068;28;20884;-61
2022/11/26 13:21:33;;;;;;;10.50;6.25;;;;;;;10.59;65.04;101609.56;10472137;28;20916;-61
2022/11/26 13:27:24;;;;;;;6.40;5.60;;;;;;;9.96;68.20;101625.63;10470395;28;20721;-61
2022/11/26 13:32:56;;;;;;;11.45;7.05;;;;;;;9.65;69.48;101632.63;10471322;28;20044;-61
2022/11/26 13:38:09;;;;;;;8.80;6.20;;;;;;;9.33;70.91;101637.88;10477150;28;20351;-61
2022/11/26 13:43:38;;;;;;;9.77;6.05;;;;;;;9.06;71.48;101625.13;10495773;28;20503;-61
2022/11/26 13:48:51;;;;;;;7.13;5.07;;;;;;;8.86;72.42;101604.91;10466215;28;20124;-62
2022/11/26 13:54:04;;;;;;;5.60;5.05;;;;;;;9.25;72.34;101618.81;10465640;28;20044;-61
2022/11/26 13:59:21;;;;;;;10.60;7.13;;;;;;;9.17;72.22;101628.06;10466227;28;20415;-60
2022/11/26 14:04:31;;;;;;;8.10;5.75;;;;;;;8.91;73.65;101626.75;10468625;28;20047;-60
2022/11/26 14:09:45;;;;;;;8.57;5.68;;;;;;;8.68;74.73;101617.34;10469577;28;20550;-60
2022/11/26 14:14:48;;;;;;;9.73;5.15;;;;;;;8.82;74.92;101628.09;10466249;28;20503;-61
2022/11/26 14:19:55;;;;;;;9.88;5.75;;;;;;;8.82;74.57;101617.47;10468943;28;20045;-61
2022/11/26 14:25:03;;;;;;;10.25;5.43;;;;;;;8.65;74.99;101625.47;10465664;28;20055;-61
2022/11/26 14:30:05;;;;;;;6.68;5.22;;;;;;;8.53;75.41;101634.00;10460244;28;20044;-61
2022/11/26 14:35:30;;;;;;;5.32;4.72;;;;;;;8.35;75.55;101618.06;10463044;28;20454;-61
2022/11/26 14:40:36;;;;;;;10.60;5.78;;;;;;;8.62;75.23;101642.38;10461839;28;20144;-61
2022/11/26 14:45:38;;;;;;;8.52;5.25;;;;;;;8.74;75.23;101632.94;10474212;28;20144;-61
2022/11/26 14:50:40;;;;;;;7.05;5.03;;;;;;;8.66;74.98;101629.81;10483921;28;20437;-61
2022/11/26 14:55:43;;;;;;;7.07;4.90;;;;;;;8.60;75.23;101607.13;10482402;28;20478;-60
2022/11/26 15:01:00;;;;;;;7.63;5.95;;;;;;;8.62;75.32;101620.31;10472710;28;20048;-61
2022/11/26 15:06:02;;;;;;;8.98;7.07;;;;;;;8.56;75.54;101620.63;10458653;28;20052;-62
2022/11/26 15:11:06;;;;;;;10.55;6.07;;;;;;;8.52;75.54;101614.59;10463135;28;20052;-60
2022/11/26 15:16:35;;;;;;;14.50;7.88;;;;;;;8.46;76.06;101604.28;10459039;28;20058;-59
2022/11/26 15:21:39;;;;;;;8.70;7.13;;;;;;;8.48;76.01;101605.94;10462605;28;20056;-60
2022/11/26 15:26:45;;;;;;;11.30;7.57;;;;;;;8.50;75.69;101600.53;10462879;28;20270;-59
2022/11/26 15:31:46;;;;;;;8.75;7.32;;;;;;;8.50;76.09;101595.25;10464589;28;20259;-60
2022/11/26 15:36:48;;;;;;;11.45;6.90;;;;;;;8.40;76.26;101592.13;10461149;28;20051;-59
2022/11/26 15:41:50;;;;;;;10.88;7.53;;;;;;;8.40;76.07;101586.84;10463850;28;20515;-61
2022/11/26 15:46:54;;;;;;;11.77;7.28;;;;;;;8.57;75.77;101593.13;10463559;28;20097;-60
2022/11/26 15:51:59;;;;;;;11.45;7.72;;;;;;;8.64;75.38;101602.50;10457898;28;20154;-60
2022/11/26 15:57:06;;;;;;;7.75;6.10;;;;;;;8.36;74.99;101571.16;10464474;28;20092;-59
2022/11/26 16:02:18;;;;;;;11.10;7.00;;;;;;;8.46;75.38;101605.13;10464542;28;20054;-59
2022/11/26 16:07:25;;;;;;;11.27;6.47;;;;;;;8.42;75.79;101614.16;10461075;28;20052;-60
2022/11/26 16:12:32;;;;;;;9.13;6.78;;;;;;;8.33;76.06;101619.91;10462737;28;20044;-60
2022/11/26 16:17:35;;;;;;;9.93;6.95;;;;;;;8.27;76.10;101620.22;10461657;28;20051;-60
2022/11/26 16:22:37;;;;;;;11.43;6.43;;;;;;;8.42;75.77;101614.16;10465961;28;20356;-59
2022/11/26 16:27:38;;;;;;;11.05;7.53;;;;;;;8.48;75.40;101607.69;10457053;28;20149;-60
2022/11/26 16:32:39;;;;;;;11.18;7.88;;;;;;;8.43;75.67;101615.88;10454096;28;20060;-60
2022/11/26 16:37:44;;;;;;;10.30;6.88;;;;;;;8.33;75.46;101617.25;10350772;22;20050;-62
2022/11/26 16:42:46;;;;;;;10.38;6.57;;;;;;;8.40;74.92;101602.75;10245751;28;20928;-59
2022/11/26 16:47:53;;;;;;;9.95;6.85;;;;;;;8.46;74.08;101620.19;10245199;28;20058;-58
2022/11/26 16:52:55;;;;;;;11.85;8.65;;;;;;;8.59;73.83;101612.50;10239950;28;20058;-56
2022/11/26 16:58:00;;;;;;;11.68;7.40;;;;;;;8.47;73.49;101611.31;10245177;28;20140;-61
2022/11/26 17:03:01;;;;;;;12.82;7.85;;;;;;;8.45;73.74;101614.03;10248930;28;20633;-60
2022/11/26 17:08:03;;;;;;;10.13;7.60;;;;;;;8.44;74.39;101617.63;10243424;28;20712;-65
2022/11/26 17:13:06;;;;;;;12.32;7.60;;;;;;;8.40;75.05;101626.63;10307007;28;20051;-60
2022/11/26 17:18:19;;;;;;;10.05;7.35;;;;;;;8.43;74.94;101629.13;10243342;28;20054;-58
2022/11/26 17:23:21;;;;;;;10.60;7.00;;;;;;;8.18;75.08;101604.75;10244429;28;20046;-59
2022/11/26 17:28:22;;;;;;;15.73;11.55;;;;;;;8.23;75.21;101605.41;10239404;28;20067;-58
2022/11/26 17:33:23;;;;;;;16.55;9.68;;;;;;;8.39;74.88;101611.66;10245039;28;20374;-58
2022/11/26 17:38:25;;;;;;;12.05;7.90;;;;;;;8.46;73.81;101594.50;10298766;28;20054;-60
2022/11/26 17:43:26;;;;;;;13.30;9.52;;;;;;;8.51;73.26;101607.56;10309426;28;20055;-58
2022/11/26 17:48:28;;;;;;;16.88;15.32;;;;;;;8.49;73.59;101594.34;10241236;28;20061;-56
2022/11/26 17:53:29;;;;;;;12.50;8.13;;;;;;;8.50;74.19;101597.88;10246815;28;20642;-56
2022/11/26 17:58:30;;;;;;;10.63;7.95;;;;;;;8.48;75.02;101597.09;10240824;28;21299;-57
2022/11/26 18:03:32;;;;;;;12.63;8.63;;;;;;;8.52;75.26;101606.63;10242209;28;20093;-60
2022/11/26 18:08:33;;;;;;;12.75;8.15;;;;;;;8.49;75.44;101610.28;10242123;28;20059;-57
2022/11/26 18:13:35;;;;;;;11.38;8.07;;;;;;;8.58;75.26;101618.72;10309743;28;20059;-59
2022/11/26 18:18:36;;;;;;;13.98;9.27;;;;;;;8.42;76.43;101608.88;10243775;28;20062;-63
2022/11/26 18:23:40;;;;;;;13.02;8.40;;;;;;;8.57;75.67;101609.91;10242694;28;20050;-61
2022/11/26 18:28:41;;;;;;;12.23;8.35;;;;;;;8.52;75.51;101603.97;10243385;28;20042;-64
2022/11/26 18:33:43;;;;;;;10.98;7.80;;;;;;;8.66;75.87;101608.56;10305745;28;22065;-61
2022/11/26 18:38:44;;;;;;;12.27;7.75;;;;;;;8.69;75.09;101611.06;10244075;28;20055;-60
2022/11/26 18:43:46;;;;;;;9.10;6.68;;;;;;;8.70;75.54;101598.66;10246300;28;20055;-60
2022/11/26 18:48:49;;;;;;;11.90;8.55;;;;;;;8.59;75.18;101599.22;10241869;28;20120;-61
2022/11/26 18:53:50;;;;;;;11.60;8.32;;;;;;;8.70;75.64;101606.63;10243039;28;20059;-60
2022/11/26 18:58:52;;;;;;;9.77;8.25;;;;;;;8.63;75.91;101611.38;10240994;28;20061;-60
2022/11/26 19:03:54;;;;;;;12.35;9.50;;;;;;;8.62;75.88;101585.78;10307539;28;20053;-59
2022/11/26 19:09:18;;;;;;;13.57;10.15;;;;;;;8.55;76.18;101576.41;10247028;28;20055;-61
2022/11/26 19:14:20;;;;;;;11.57;8.98;;;;;;;8.51;76.32;101588.13;10242756;28;20044;-60
2022/11/26 19:19:21;;;;;;;12.68;9.02;;;;;;;8.54;76.86;101593.28;10308103;28;20057;-60
2022/11/26 19:24:23;;;;;;;17.77;14.25;;;;;;;8.47;77.20;101575.00;10247216;28;20911;-60
2022/11/26 19:29:24;;;;;;;17.08;11.88;;;;;;;8.43;77.69;101578.72;10241598;28;20589;-58
2022/11/26 19:34:26;;;;;;;25.17;20.55;;;;;;;8.37;77.76;101559.59;10239688;28;20051;-60
2022/11/26 19:39:27;;;;;;;14.57;10.50;;;;;;;8.48;77.93;101560.81;10243265;28;20046;-59
2022/11/26 19:44:28;;;;;;;14.02;11.85;;;;;;;8.48;77.46;101570.56;10243269;28;20070;-59
2022/11/26 19:49:31;;;;;;;12.23;9.60;;;;;;;8.22;78.06;101555.94;10244315;28;20059;-59
2022/11/26 19:54:33;;;;;;;15.15;10.38;;;;;;;8.25;78.54;101563.72;10317410;28;20061;-60
2022/11/26 19:59:34;;;;;;;15.20;12.25;;;;;;;8.30;78.40;101578.50;10249451;28;20696;-59
2022/11/26 20:04:36;;;;;;;12.65;10.55;;;;;;;8.27;76.02;101568.03;10250258;28;20069;-59
2022/11/26 20:09:37;;;;;;;15.23;12.50;;;;;;;8.41;74.95;101575.28;10251974;28;20504;-59
2022/11/26 20:14:39;;;;;;;17.05;10.90;;;;;;;8.47;75.91;101577.66;10250996;28;20166;-59
2022/11/26 20:19:40;;;;;;;13.15;10.65;;;;;;;8.45;76.93;101581.31;10320034;28;20063;-60
2022/11/26 20:24:42;;;;;;;14.52;11.32;;;;;;;8.44;76.17;101595.56;10244052;28;20066;-60
2022/11/26 20:29:43;;;;;;;12.25;10.52;;;;;;;8.45;75.46;101586.63;10247141;28;20050;-60
2022/11/26 20:34:46;;;;;;;17.05;13.07;;;;;;;8.27;73.07;101583.06;10243519;28;20057;-60
2022/11/26 20:39:47;;;;;;;50.38;44.97;;;;;;;8.13;74.46;101581.94;10251671;28;20044;-58
2022/11/26 20:44:49;;;;;;;18.80;16.83;;;;;;;8.15;74.67;101592.50;10312654;28;20050;-58
2022/11/26 20:49:50;;;;;;;18.83;11.80;;;;;;;8.19;73.15;101582.59;10241759;28;20050;-61
2022/11/26 20:54:51;;;;;;;16.13;13.05;;;;;;;8.24;73.59;101583.22;10241131;28;21453;-60
2022/11/26 20:59:54;;;;;;;11.80;8.05;;;;;;;8.16;72.09;101574.81;10312167;28;20674;-61
2022/11/26 21:04:55;;;;;;;9.93;8.48;;;;;;;7.97;72.12;101580.97;10244521;28;20165;-59
2022/11/26 21:09:57;;;;;;;9.63;8.65;;;;;;;7.94;72.85;101582.00;10241592;28;20871;-58
2022/11/26 21:14:59;;;;;;;9.80;8.07;;;;;;;7.96;72.72;101585.44;10307711;28;20058;-59
2022/11/26 21:20:00;;;;;;;10.43;8.35;;;;;;;8.10;72.82;101586.56;10240358;28;20054;-60
2022/11/26 21:25:01;;;;;;;9.50;8.30;;;;;;;8.04;72.52;101574.44;10305877;28;20058;-61
2022/11/26 21:30:03;;;;;;;14.40;10.18;;;;;;;8.16;72.32;101593.38;10301519;28;20070;-64
2022/11/26 21:35:06;;;;;;;11.20;8.43;;;;;;;8.05;72.71;101593.91;10234081;28;20054;-60
2022/11/26 21:40:08;;;;;;;12.65;8.25;;;;;;;8.09;72.70;101593.66;10326069;28;20055;-61
2022/11/26 21:45:09;;;;;;;9.02;7.18;;;;;;;8.09;72.72;101596.31;10244022;28;20061;-61
2022/11/26 21:50:11;;;;;;;11.23;7.43;;;;;;;8.17;72.95;101597.72;10242278;28;20334;-60
2022/11/26 21:55:12;;;;;;;7.95;7.15;;;;;;;8.16;72.68;101599.53;10308492;28;20219;-60
2022/11/26 22:00:15;;;;;;;8.90;5.78;;;;;;;8.18;72.27;101580.88;10242419;28;20067;-60
2022/11/26 22:05:16;;;;;;;8.10;6.53;;;;;;;8.14;71.74;101573.06;10311074;28;20058;-60
2022/11/26 22:10:18;;;;;;;9.27;6.70;;;;;;;8.12;71.45;101569.66;10239217;28;20061;-60
2022/11/26 22:15:19;;;;;;;7.00;5.78;;;;;;;8.06;71.91;101575.25;10238181;28;20053;-59
2022/11/26 22:20:20;;;;;;;7.55;6.50;;;;;;;8.00;71.91;101572.91;10243512;28;20051;-61
2022/11/26 22:25:22;;;;;;;9.07;6.75;;;;;;;7.92;71.69;101567.94;10242647;28;20054;-60
2022/11/26 22:30:24;;;;;;;7.35;6.25;;;;;;;7.93;72.63;101566.19;10244607;28;20065;-59
2022/11/26 22:35:25;;;;;;;9.00;6.60;;;;;;;7.89;72.73;101551.34;10239392;28;20425;-60
2022/11/26 22:40:27;;;;;;;8.60;6.30;;;;;;;7.97;72.27;101565.06;10245938;28;20055;-61
2022/11/26 22:45:29;;;;;;;9.40;7.10;;;;;;;8.01;72.05;101561.34;10241759;28;20062;-60
2022/11/26 22:50:30;;;;;;;9.75;6.90;;;;;;;8.02;72.21;101549.81;10247020;28;20054;-61
2022/11/26 22:55:31;;;;;;;9.48;6.20;;;;;;;8.07;72.29;101557.53;10246038;28;20061;-62
2022/11/26 23:01:06;;;;;;;11.40;6.32;;;;;;;7.88;71.88;101513.38;10239234;28;20264;-59
2022/11/26 23:06:09;;;;;;;9.35;6.50;;;;;;;8.09;71.41;101532.66;10295676;28;20053;-59
2022/11/26 23:11:18;;;;;;;8.68;6.45;;;;;;;8.07;71.83;101517.75;10245826;28;20054;-59
2022/11/26 23:16:22;;;;;;;8.70;6.38;;;;;;;8.07;71.48;101502.69;10240410;28;20081;-60
2022/11/26 23:21:28;;;;;;;8.07;6.55;;;;;;;8.00;71.44;101501.31;10241767;28;20047;-60
2022/11/26 23:26:32;;;;;;;9.27;6.65;;;;;;;8.05;71.85;101493.13;10306878;28;20165;-59